createdAt,value
2022-12-17T00:01:29.806Z,8.13
2022-12-17T00:04:16.666Z,7.40
2022-12-17T00:07:03.419Z,7.30
2022-12-17T00:09:50.456Z,9.50
2022-12-17T00:12:37.660Z,9.50
2022-12-17T00:15:24.422Z,9.25
2022-12-17T00:18:11.135Z,10.30
2022-12-17T00:20:57.944Z,11.32
2022-12-17T00:23:44.807Z,10.57
2022-12-17T00:26:31.456Z,10.27
2022-12-17T00:29:18.342Z,12.07
2022-12-17T00:32:04.998Z,12.02
2022-12-17T00:34:51.456Z,11.25
2022-12-17T00:37:38.316Z,11.02
2022-12-17T00:40:26.477Z,11.40
2022-12-17T00:43:30.631Z,11.55
2022-12-17T00:46:18.374Z,11.05
2022-12-17T00:49:05.080Z,12.00
2022-12-17T00:51:51.936Z,12.02
2022-12-17T00:54:38.960Z,10.88
2022-12-17T00:57:30.496Z,11.68
2022-12-17T01:00:17.371Z,12.32
2022-12-17T01:03:04.023Z,11.85
2022-12-17T01:05:50.814Z,11.35
2022-12-17T01:08:37.857Z,11.93
2022-12-17T01:11:27.693Z,11.60
2022-12-17T01:14:14.321Z,12.10
2022-12-17T01:17:01.301Z,12.38
2022-12-17T01:19:48.077Z,12.07
2022-12-17T01:22:35.936Z,12.60
2022-12-17T01:25:22.417Z,12.50
2022-12-17T01:28:10.505Z,11.80
2022-12-17T01:30:57.977Z,12.63
2022-12-17T01:33:44.731Z,12.38
2022-12-17T01:36:31.766Z,12.48
2022-12-17T01:39:18.656Z,12.50
2022-12-17T01:42:05.554Z,11.88
2022-12-17T01:45:08.881Z,12.13
2022-12-17T01:48:12.089Z,12.32
2022-12-17T01:51:03.447Z,12.40
2022-12-17T01:53:56.293Z,12.43
2022-12-17T01:56:44.212Z,13.20
2022-12-17T01:59:33.691Z,12.55
2022-12-17T02:02:20.586Z,12.95
2022-12-17T02:05:07.723Z,12.60
2022-12-17T02:08:09.360Z,12.93
2022-12-17T02:11:19.125Z,13.45
2022-12-17T02:14:33.706Z,13.32
2022-12-17T02:17:27.286Z,13.45
2022-12-17T02:21:00.043Z,13.27
2022-12-17T02:24:08.092Z,13.35
2022-12-17T02:27:04.082Z,13.00
2022-12-17T02:30:05.516Z,13.15
2022-12-17T02:32:54.326Z,13.52
2022-12-17T02:35:50.175Z,13.13
2022-12-17T02:38:45.836Z,13.10
2022-12-17T02:42:04.571Z,13.90
2022-12-17T02:44:52.565Z,12.93
2022-12-17T02:47:41.680Z,13.18
2022-12-17T02:50:29.681Z,13.57
2022-12-17T02:53:19.878Z,13.45
2022-12-17T02:56:07.078Z,13.80
2022-12-17T02:58:53.851Z,13.68
2022-12-17T03:01:48.220Z,14.07
2022-12-17T03:04:34.974Z,13.80
2022-12-17T03:07:21.681Z,14.48
2022-12-17T03:10:08.247Z,13.10
2022-12-17T03:12:54.967Z,13.10
2022-12-17T03:15:42.480Z,13.27
2022-12-17T03:18:29.536Z,13.52
2022-12-17T03:21:16.376Z,13.27
2022-12-17T03:24:02.943Z,13.38
2022-12-17T03:26:50.662Z,12.77
2022-12-17T03:29:37.201Z,13.68
2022-12-17T03:32:24.398Z,13.30
2022-12-17T03:35:11.286Z,12.95
2022-12-17T03:37:57.847Z,13.10
2022-12-17T03:40:44.397Z,13.55
2022-12-17T03:43:31.893Z,12.57
2022-12-17T03:46:19.034Z,12.48
2022-12-17T03:49:05.847Z,13.45
2022-12-17T03:51:52.567Z,13.35
2022-12-17T03:54:39.392Z,13.30
2022-12-17T03:57:26.001Z,14.68
2022-12-17T04:00:12.561Z,14.95
2022-12-17T04:02:59.064Z,15.60
2022-12-17T04:05:46.005Z,17.13
2022-12-17T04:08:32.882Z,18.52
2022-12-17T04:11:20.234Z,20.95
2022-12-17T04:14:07.016Z,18.13
2022-12-17T04:16:54.072Z,17.27
2022-12-17T04:19:40.731Z,16.85
2022-12-17T04:22:27.281Z,15.77
2022-12-17T04:25:14.171Z,13.25
2022-12-17T04:28:01.356Z,13.30
2022-12-17T04:30:47.936Z,13.02
2022-12-17T04:33:35.297Z,12.52
2022-12-17T04:36:22.415Z,11.50
2022-12-17T04:39:09.206Z,10.70
2022-12-17T04:41:56.081Z,11.38
2022-12-17T04:44:45.061Z,11.57
2022-12-17T04:47:36.542Z,10.70
2022-12-17T04:50:23.328Z,10.70
2022-12-17T04:53:09.839Z,11.57
2022-12-17T04:55:57.366Z,11.15
2022-12-17T04:58:43.941Z,11.18
2022-12-17T05:01:30.571Z,10.75
2022-12-17T05:04:17.528Z,10.63
2022-12-17T05:07:04.259Z,10.77
2022-12-17T05:09:50.796Z,11.48
2022-12-17T05:12:37.698Z,10.95
2022-12-17T05:15:25.216Z,10.45
2022-12-17T05:18:11.600Z,10.90
2022-12-17T05:20:58.161Z,10.75
2022-12-17T05:23:44.732Z,10.98
2022-12-17T05:26:40.026Z,10.48
2022-12-17T05:29:27.755Z,10.95
2022-12-17T05:32:15.256Z,10.30
2022-12-17T05:35:01.887Z,10.25
2022-12-17T05:37:48.408Z,10.30
2022-12-17T05:40:35.123Z,9.30
2022-12-17T05:43:25.692Z,9.80
2022-12-17T05:46:13.035Z,9.80
2022-12-17T05:48:59.762Z,10.00
2022-12-17T05:51:46.300Z,9.38
2022-12-17T05:54:33.100Z,10.25
2022-12-17T05:57:19.759Z,9.45
2022-12-17T06:00:06.390Z,9.63
2022-12-17T06:02:53.455Z,9.82
2022-12-17T06:05:40.555Z,10.07
2022-12-17T06:08:28.400Z,9.73
2022-12-17T06:11:19.120Z,9.40
2022-12-17T06:14:07.094Z,9.73
2022-12-17T06:16:53.516Z,9.35
2022-12-17T06:19:40.245Z,9.68
2022-12-17T06:22:26.810Z,8.80
2022-12-17T06:25:13.816Z,9.07
2022-12-17T06:28:00.562Z,9.38
2022-12-17T06:30:47.716Z,8.52
2022-12-17T06:33:34.904Z,9.68
2022-12-17T06:36:23.074Z,9.32
2022-12-17T06:39:10.114Z,9.60
2022-12-17T06:42:02.138Z,9.40
2022-12-17T06:44:51.280Z,9.60
2022-12-17T06:47:38.015Z,9.80
2022-12-17T06:50:25.195Z,9.57
2022-12-17T06:53:23.220Z,10.10
2022-12-17T06:56:10.862Z,10.07
2022-12-17T06:58:57.734Z,9.93
2022-12-17T07:01:44.735Z,9.50
2022-12-17T07:04:31.915Z,10.05
2022-12-17T07:07:18.488Z,9.93
2022-12-17T07:10:18.800Z,10.05
2022-12-17T07:13:05.530Z,10.00
2022-12-17T07:15:52.088Z,9.68
2022-12-17T07:18:38.759Z,9.02
2022-12-17T07:21:25.656Z,9.77
2022-12-17T07:24:16.890Z,9.63
2022-12-17T07:27:03.561Z,8.95
2022-12-17T07:29:50.142Z,9.88
2022-12-17T07:32:37.002Z,9.73
2022-12-17T07:35:23.716Z,10.90
2022-12-17T07:38:17.201Z,9.43
2022-12-17T07:41:04.881Z,10.13
2022-12-17T07:43:53.328Z,10.43
2022-12-17T07:46:40.881Z,10.43
2022-12-17T07:49:27.761Z,9.57
2022-12-17T07:52:14.630Z,9.32
2022-12-17T07:55:01.362Z,10.05
2022-12-17T07:57:48.091Z,9.73
2022-12-17T08:00:35.121Z,9.32
2022-12-17T08:03:22.467Z,9.98
2022-12-17T08:06:09.302Z,9.52
2022-12-17T08:08:56.033Z,9.30
2022-12-17T08:11:43.097Z,8.38
2022-12-17T08:14:30.005Z,9.38
2022-12-17T08:17:16.566Z,8.77
2022-12-17T08:20:03.615Z,9.45
2022-12-17T08:22:50.321Z,8.77
2022-12-17T08:25:36.884Z,8.98
2022-12-17T08:31:30.617Z,9.60
2022-12-17T08:34:17.520Z,9.98
2022-12-17T08:37:04.401Z,8.95
2022-12-17T08:39:50.977Z,8.77
2022-12-17T08:42:37.522Z,8.60
2022-12-17T08:45:24.894Z,8.40
2022-12-17T08:48:11.761Z,8.90
2022-12-17T08:50:58.321Z,8.27
2022-12-17T08:53:44.841Z,8.30
2022-12-17T08:56:31.158Z,8.63
2022-12-17T08:59:17.684Z,9.07
2022-12-17T09:02:04.459Z,9.70
2022-12-17T09:04:51.340Z,8.70
2022-12-17T09:07:37.846Z,9.23
2022-12-17T09:10:25.045Z,9.60
2022-12-17T09:13:11.761Z,10.02
2022-12-17T09:15:58.755Z,9.20
2022-12-17T09:18:45.363Z,8.95
2022-12-17T09:21:32.217Z,9.70
2022-12-17T09:24:19.239Z,8.82
2022-12-17T09:27:06.046Z,9.20
2022-12-17T09:29:52.566Z,9.05
2022-12-17T09:32:56.013Z,9.60
2022-12-17T09:35:50.322Z,9.10
2022-12-17T09:38:37.201Z,9.00
2022-12-17T09:41:54.937Z,9.52
2022-12-17T09:45:10.696Z,9.27
2022-12-17T09:48:20.945Z,8.93
2022-12-17T09:51:11.420Z,9.68
2022-12-17T09:54:04.738Z,9.10
2022-12-17T09:56:53.656Z,8.88
2022-12-17T09:59:44.677Z,9.82
2022-12-17T10:02:38.816Z,9.15
2022-12-17T10:05:32.722Z,9.38
2022-12-17T10:08:20.239Z,9.70
2022-12-17T10:11:07.097Z,9.30
2022-12-17T10:13:53.998Z,9.00
2022-12-17T10:16:55.115Z,9.02
2022-12-17T10:19:53.040Z,9.00
2022-12-17T10:22:42.329Z,9.32
2022-12-17T10:25:43.236Z,9.38
2022-12-17T10:28:38.963Z,9.65
2022-12-17T10:31:35.078Z,9.32
2022-12-17T10:34:26.001Z,8.95
2022-12-17T10:37:13.635Z,8.88
2022-12-17T10:40:01.528Z,9.20
2022-12-17T10:42:59.285Z,9.07
2022-12-17T10:45:49.444Z,8.57
2022-12-17T10:48:39.921Z,9.60
2022-12-17T10:51:56.720Z,9.30
2022-12-17T10:54:51.875Z,8.90
2022-12-17T10:57:55.618Z,8.73
2022-12-17T11:00:56.036Z,9.32
2022-12-17T11:03:56.647Z,8.88
2022-12-17T11:06:56.393Z,9.10
2022-12-17T11:09:51.439Z,8.80
2022-12-17T11:12:45.371Z,8.30
2022-12-17T11:15:57.738Z,8.80
2022-12-17T11:19:01.937Z,8.52
2022-12-17T11:21:54.615Z,8.13
2022-12-17T11:24:46.485Z,8.50
2022-12-17T11:27:46.803Z,8.57
2022-12-17T11:30:36.093Z,8.23
2022-12-17T11:33:48.082Z,7.88
2022-12-17T11:37:26.815Z,8.68
2022-12-17T11:40:40.862Z,8.68
2022-12-17T11:43:42.956Z,7.55
2022-12-17T11:46:56.118Z,7.60
2022-12-17T11:49:59.766Z,7.68
2022-12-17T11:53:13.521Z,8.40
2022-12-17T11:56:37.342Z,8.30
2022-12-17T11:59:52.483Z,7.75
2022-12-17T12:03:03.086Z,7.97
2022-12-17T12:06:11.298Z,8.02
2022-12-17T12:09:22.597Z,7.65
2022-12-17T12:12:31.886Z,2.72
2022-12-17T12:15:50.404Z,7.90
2022-12-17T12:18:55.281Z,7.68
2022-12-17T12:22:05.526Z,7.78
2022-12-17T12:25:13.693Z,7.18
2022-12-17T12:28:09.044Z,7.18
2022-12-17T12:31:12.926Z,7.28
2022-12-17T12:34:24.263Z,7.80
2022-12-17T12:37:12.719Z,7.18
2022-12-17T12:40:09.361Z,7.28
2022-12-17T12:43:10.867Z,7.57
2022-12-17T12:46:00.315Z,7.18
2022-12-17T12:49:04.841Z,7.65
2022-12-17T12:51:55.920Z,7.60
2022-12-17T12:54:52.106Z,7.68
2022-12-17T12:57:57.046Z,7.75
2022-12-17T13:01:04.295Z,8.57
2022-12-17T13:04:03.065Z,8.40
2022-12-17T13:06:58.001Z,9.30
2022-12-17T13:09:34.242Z,8.23
2022-12-17T13:12:06.159Z,8.88
2022-12-17T13:14:50.960Z,8.65
2022-12-17T13:17:19.210Z,8.40
2022-12-17T13:19:59.600Z,8.68
2022-12-17T13:22:34.610Z,2.13
2022-12-17T13:25:23.761Z,9.18
2022-12-17T13:27:52.254Z,8.50
2022-12-17T13:30:23.442Z,8.55
2022-12-17T13:32:59.921Z,8.60
2022-12-17T13:35:38.161Z,1.75
2022-12-17T13:38:24.245Z,8.63
2022-12-17T13:41:09.566Z,8.13
2022-12-17T13:43:53.836Z,8.43
2022-12-17T13:46:28.136Z,8.52
2022-12-17T13:49:02.640Z,7.70
2022-12-17T13:51:37.683Z,1.95
2022-12-17T13:54:06.496Z,8.55
2022-12-17T13:56:38.008Z,8.40
2022-12-17T13:59:09.623Z,8.60
2022-12-17T14:01:50.508Z,8.48
2022-12-17T14:04:29.995Z,8.00
2022-12-17T14:07:06.007Z,8.40
2022-12-17T14:09:38.774Z,8.82
2022-12-17T14:12:23.125Z,9.38
2022-12-17T14:15:01.036Z,9.90
2022-12-17T14:17:49.960Z,9.75
2022-12-17T14:20:22.960Z,8.52
2022-12-17T14:22:57.245Z,8.43
2022-12-17T14:25:30.828Z,8.30
2022-12-17T14:28:05.841Z,8.75
2022-12-17T14:31:02.448Z,2.38
2022-12-17T14:36:07.769Z,8.82
2022-12-17T14:38:38.971Z,8.95
2022-12-17T14:41:35.123Z,9.35
2022-12-17T14:44:04.995Z,8.70
2022-12-17T14:46:35.715Z,9.10
2022-12-17T14:49:06.930Z,8.95
2022-12-17T14:51:43.936Z,1.55
2022-12-17T14:54:27.902Z,8.30
2022-12-17T14:56:58.461Z,8.18
2022-12-17T14:59:36.039Z,9.30
2022-12-17T15:02:10.781Z,8.95
2022-12-17T15:04:40.542Z,8.18
2022-12-17T15:07:17.713Z,9.57
2022-12-17T15:09:46.755Z,8.88
2022-12-17T15:12:15.106Z,8.90
2022-12-17T15:14:43.426Z,8.85
2022-12-17T15:17:12.542Z,9.43
2022-12-17T15:19:40.863Z,9.32
2022-12-17T15:22:17.187Z,9.77
2022-12-17T15:24:46.305Z,9.27
2022-12-17T15:27:17.346Z,9.35
2022-12-17T15:29:46.144Z,8.93
2022-12-17T15:32:24.221Z,9.48
2022-12-17T15:34:52.542Z,8.82
2022-12-17T15:37:25.509Z,9.63
2022-12-17T15:39:54.250Z,8.85
2022-12-17T15:42:40.700Z,1.73
2022-12-17T15:45:09.986Z,9.00
2022-12-17T15:47:39.371Z,9.00
2022-12-17T15:50:08.397Z,9.32
2022-12-17T15:52:36.701Z,3.45
2022-12-17T15:55:05.326Z,9.15
2022-12-17T15:57:33.595Z,8.77
2022-12-17T16:00:01.959Z,8.75
2022-12-17T16:02:30.427Z,9.02
2022-12-17T16:04:58.982Z,1.88
2022-12-17T16:07:27.747Z,3.22
2022-12-17T16:09:59.066Z,8.77
2022-12-17T16:12:31.737Z,2.67
2022-12-17T16:15:00.227Z,9.00
2022-12-17T16:17:28.471Z,8.90
2022-12-17T16:19:56.813Z,9.90
2022-12-17T16:22:25.346Z,9.70
2022-12-17T16:24:53.675Z,10.23
2022-12-17T16:27:22.138Z,4.22
2022-12-17T16:29:50.950Z,10.30
2022-12-17T16:32:19.261Z,10.35
2022-12-17T16:34:47.836Z,10.60
2022-12-17T16:37:16.225Z,10.60
2022-12-17T16:39:45.089Z,11.20
2022-12-17T16:42:13.506Z,11.40
2022-12-17T16:44:41.779Z,11.60
2022-12-17T16:47:12.176Z,10.82
2022-12-17T16:49:40.650Z,10.65
2022-12-17T16:52:09.451Z,11.88
2022-12-17T16:54:37.786Z,11.32
2022-12-17T16:57:06.138Z,12.32
2022-12-17T16:59:34.472Z,1.85
2022-12-17T17:02:03.952Z,13.02
2022-12-17T17:04:32.551Z,13.27
2022-12-17T17:07:00.878Z,12.90
2022-12-17T17:09:29.436Z,13.85
2022-12-17T17:11:59.648Z,14.18
2022-12-17T17:14:28.833Z,14.43
2022-12-17T17:16:57.146Z,13.65
2022-12-17T17:19:25.473Z,15.52
2022-12-17T17:21:55.617Z,15.40
2022-12-17T17:24:26.928Z,14.75
2022-12-17T17:26:57.558Z,14.30
2022-12-17T17:29:26.471Z,14.80
2022-12-17T17:32:10.658Z,14.07
2022-12-17T17:37:08.978Z,14.50
2022-12-17T17:39:37.376Z,13.90
2022-12-17T17:42:06.303Z,14.52
2022-12-17T17:44:35.227Z,13.85
2022-12-17T17:47:03.649Z,13.55
2022-12-17T17:49:32.061Z,14.13
2022-12-17T17:52:15.647Z,14.02
2022-12-17T17:54:44.081Z,14.20
2022-12-17T17:57:12.711Z,14.23
2022-12-17T17:59:41.042Z,15.48
2022-12-17T18:02:12.143Z,15.30
2022-12-17T18:04:40.956Z,14.30
2022-12-17T18:07:24.821Z,15.05
2022-12-17T18:09:54.076Z,15.45
2022-12-17T18:12:40.586Z,16.17
2022-12-17T18:15:14.918Z,15.38
2022-12-17T18:17:46.231Z,17.20
2022-12-17T18:20:15.585Z,14.88
2022-12-17T18:22:47.088Z,16.20
2022-12-17T18:25:17.025Z,16.30
2022-12-17T18:27:46.298Z,16.13
2022-12-17T18:30:17.189Z,15.88
2022-12-17T18:32:45.665Z,15.32
2022-12-17T18:35:14.042Z,16.55
2022-12-17T18:37:42.624Z,16.70
2022-12-17T18:40:11.870Z,17.13
2022-12-17T18:42:58.319Z,18.75
2022-12-17T18:45:26.791Z,18.55
2022-12-17T18:47:55.210Z,18.02
2022-12-17T18:50:23.588Z,18.98
2022-12-17T18:52:51.906Z,19.15
2022-12-17T18:55:20.233Z,19.35
2022-12-17T18:57:48.641Z,18.63
2022-12-17T19:00:17.085Z,19.50
2022-12-17T19:02:45.606Z,21.02
2022-12-17T19:05:14.148Z,20.15
2022-12-17T19:07:42.524Z,21.65
2022-12-17T19:10:11.427Z,20.65
2022-12-17T19:12:39.741Z,20.38
2022-12-17T19:15:09.151Z,21.70
2022-12-17T19:17:37.632Z,21.67
2022-12-17T19:20:06.340Z,19.40
2022-12-17T19:22:34.622Z,20.30
2022-12-17T19:25:02.944Z,20.33
2022-12-17T19:27:31.265Z,19.88
2022-12-17T19:30:00.351Z,19.17
2022-12-17T19:32:28.691Z,19.73
2022-12-17T19:34:57.152Z,18.48
2022-12-17T19:37:25.731Z,17.45
2022-12-17T19:39:54.131Z,17.17
2022-12-17T19:42:25.557Z,16.58
2022-12-17T19:44:56.061Z,16.60
2022-12-17T19:47:25.666Z,17.67
2022-12-17T19:49:53.991Z,15.52
2022-12-17T19:52:22.431Z,16.45
2022-12-17T19:54:50.791Z,13.50
2022-12-17T19:57:19.230Z,12.32
2022-12-17T19:59:47.691Z,14.52
2022-12-17T20:02:18.265Z,14.65
2022-12-17T20:04:46.881Z,15.38
2022-12-17T20:07:15.269Z,14.52
2022-12-17T20:09:45.651Z,15.40
2022-12-17T20:12:14.766Z,14.82
2022-12-17T20:14:43.078Z,14.90
2022-12-17T20:17:11.591Z,15.30
2022-12-17T20:19:40.071Z,15.23
2022-12-17T20:22:08.666Z,14.70
2022-12-17T20:24:38.243Z,15.68
2022-12-17T20:27:07.128Z,14.32
2022-12-17T20:29:35.471Z,14.38
2022-12-17T20:32:04.701Z,14.63
2022-12-17T20:34:33.166Z,15.00
2022-12-17T20:37:01.586Z,13.68
2022-12-17T20:39:29.983Z,14.85
2022-12-17T20:41:58.831Z,13.80
2022-12-17T20:44:27.579Z,14.57
2022-12-17T20:46:56.029Z,13.77
2022-12-17T20:49:24.394Z,13.90
2022-12-17T20:51:52.719Z,14.32
2022-12-17T20:54:22.151Z,14.50
2022-12-17T20:56:51.031Z,14.48
2022-12-17T20:59:20.450Z,15.57
2022-12-17T21:01:55.550Z,15.18
2022-12-17T21:04:25.167Z,13.75
2022-12-17T21:06:53.982Z,14.07
2022-12-17T21:09:26.313Z,15.23
2022-12-17T21:11:54.784Z,14.07
2022-12-17T21:14:23.238Z,13.70
2022-12-17T21:16:51.810Z,14.55
2022-12-17T21:19:21.507Z,15.27
2022-12-17T21:21:50.139Z,14.88
2022-12-17T21:24:18.773Z,14.55
2022-12-17T21:26:48.066Z,14.95
2022-12-17T21:29:17.508Z,14.13
2022-12-17T21:31:51.731Z,14.75
2022-12-17T21:34:23.583Z,14.00
2022-12-17T21:36:52.547Z,13.30
2022-12-17T21:39:21.504Z,13.60
2022-12-17T21:42:09.176Z,13.68
2022-12-17T21:44:37.753Z,13.23
2022-12-17T21:47:06.446Z,12.23
2022-12-17T21:49:35.129Z,11.60
2022-12-17T21:52:03.832Z,12.00
2022-12-17T21:54:34.647Z,11.88
2022-12-17T21:57:02.925Z,11.65
2022-12-17T21:59:31.423Z,11.52
2022-12-17T22:01:59.898Z,10.77
2022-12-17T22:04:28.420Z,10.77
2022-12-17T22:06:58.655Z,10.55
2022-12-17T22:09:37.888Z,9.77
2022-12-17T22:12:30.911Z,9.70
2022-12-17T22:14:59.227Z,8.25
2022-12-17T22:17:28.080Z,8.32
2022-12-17T22:19:57.451Z,7.40
2022-12-17T22:22:25.766Z,8.02
2022-12-17T22:24:54.196Z,6.88
2022-12-17T22:27:22.561Z,7.57
2022-12-17T22:30:09.006Z,6.95
2022-12-17T22:32:55.566Z,6.13
2022-12-17T22:37:31.451Z,6.25
2022-12-17T22:42:36.446Z,5.95
2022-12-17T22:43:19.355Z,6.07
2022-12-17T22:44:44.735Z,5.63
2022-12-17T22:46:43.966Z,6.40
2022-12-17T22:49:12.437Z,5.88
2022-12-17T22:51:42.940Z,6.13
2022-12-17T22:54:13.836Z,6.28
2022-12-17T22:57:28.628Z,6.00
2022-12-17T22:59:32.821Z,5.05
2022-12-17T23:02:01.300Z,5.47
2022-12-17T23:04:29.965Z,5.22
2022-12-17T23:06:58.306Z,5.57
2022-12-17T23:09:26.637Z,5.90
2022-12-17T23:11:55.197Z,6.38
2022-12-17T23:14:23.574Z,5.70
2022-12-17T23:16:51.914Z,6.07
2022-12-17T23:19:20.387Z,6.72
2022-12-17T23:21:48.712Z,6.97
2022-12-17T23:24:17.352Z,7.30
2022-12-17T23:26:45.673Z,7.50
2022-12-17T23:29:19.573Z,8.48
2022-12-17T23:31:48.618Z,7.57
2022-12-17T23:34:17.567Z,7.90
2022-12-17T23:36:45.931Z,7.75
2022-12-17T23:39:14.336Z,8.35
2022-12-17T23:41:42.791Z,8.27
2022-12-17T23:44:11.176Z,9.35
2022-12-17T23:46:39.599Z,9.43
2022-12-17T23:49:08.096Z,9.52
2022-12-17T23:51:36.544Z,9.63
2022-12-17T23:54:05.062Z,8.90
2022-12-17T23:56:33.677Z,9.45
2022-12-17T23:59:03.757Z,10.05
